Rockville Centre, NY (11570)

10:54 PM EDT on May 29, 2016 (GMT -0400)
South Rockville Centre | | Change Station

Elev 36 ft 40.65 °N, 73.64 °W | Updated 11 minutes ago

Fog
Fog
66.0 °F
Feels Like 66.0 °F
N
2.2
Wind Variable Wind from SSW

Today
High -- | Low -- °F
--% Chance of Precip.
Yesterday
High -- | Low -- °F
Precip. -- in
Pressure 30.08 in
Visibility 0.8 miles
Clouds Overcast 300 ft
Dew Point 65 °F
Humidity 97%
Rainfall 0.00 in
Snow Depth Not available.
5:26 AM 8:17 PM
Last Quarter, 43% visible
METAR KJFK 300251Z 16006KT 3/4SM BR OVC003 19/18 A3008 RMK AO2 SFC VIS 4 SLP186 T01890178 50000 $
Pressure 30.08 in
Visibility 0.8 miles
Clouds Overcast 300 ft
Dew Point 65 °F
Humidity 97%
Rainfall 0.00 in
Snow Depth Not available.
5:26 AM 8:17 PM
Last Quarter, 43% visible
METAR KJFK 300251Z 16006KT 3/4SM BR OVC003 19/18 A3008 RMK AO2 SFC VIS 4 SLP186 T01890178 50000 $

10-Day Weather Forecast

Almanac

Astronomy

May. 29, 2016 Rise Set
Actual Time
Civil Twilight
Nautical Twilight
Astronomical Twilight
Moon
Length of Visible Light
Length of Day
Tomorrow will be .
, % of the Moon is Illuminated

Today's Extremes

State Highs State Lows

Community

WunderPhotos

Upload Photos

1,914,587 photos uploaded!

WunderBlog® & News

Nearby

Air Quality

  Air Quality AQ Index Pollutant
Not available.

Snow Depth

Station Depth Elevation

Earthquake Activity

City Distance Mag. Time & Date
Minimum magnitude displayed is 2.5.

Coastal Water Temperatures

Place Temperature

Stations

Nearby Weather Stations

Station Location Temp. Windchill Dew Point Humidity Wind Precip. Elev Updated Type
                   

Watches & Warnings

There are currently no watches in effect.